Time;durP1;ratioP1;P1;durP2;ratioP2;P2;SDS_P1;SDS_P2;PMS_P1;PMS_P2;Temp;Humidity;BMP_temperature;BMP_pressure;BME280_temperature;BME280_humidity;BME280_pressure;Samples;Min_cycle;Max_cycle;Signal;HPM_P1;HPM_P2
2023/05/26 00:00:22;;;;;;;16.75;2.95;;;;;;;20.37;38.06;102517.38;4944931;28;20031;-59
2023/05/26 00:02:48;;;;;;;13.18;3.03;;;;;;;20.33;38.60;102514.94;4945823;29;20039;-58
2023/05/26 00:05:16;;;;;;;13.00;3.38;;;;;;;20.32;38.52;102524.09;4944087;28;20040;-60
2023/05/26 00:07:42;;;;;;;10.40;2.78;;;;;;;20.26;37.98;102526.59;4943083;29;20047;-59
2023/05/26 00:10:08;;;;;;;15.57;3.55;;;;;;;20.07;38.56;102496.72;4944557;28;20047;-58
2023/05/26 00:12:34;;;;;;;13.65;3.10;;;;;;;19.98;38.12;102498.47;4944835;29;20127;-59
2023/05/26 00:14:59;;;;;;;15.35;3.15;;;;;;;20.11;38.49;102523.47;4944454;29;20055;-60
2023/05/26 00:17:25;;;;;;;16.73;3.33;;;;;;;20.10;38.64;102524.47;4943748;29;20487;-58
2023/05/26 00:19:52;;;;;;;15.65;3.58;;;;;;;20.09;38.75;102525.50;4943898;29;20043;-58
2023/05/26 00:22:18;;;;;;;18.08;3.00;;;;;;;20.08;38.42;102534.66;4942496;28;20731;-58
2023/05/26 00:24:46;;;;;;;11.02;2.83;;;;;;;20.05;39.27;102532.22;4945172;28;20051;-58
2023/05/26 00:27:13;;;;;;;19.92;3.83;;;;;;;19.84;39.13;102504.41;4945888;29;20024;-59
2023/05/26 00:29:38;;;;;;;18.92;3.72;;;;;;;19.98;39.03;102535.69;4941731;29;20035;-59
2023/05/26 00:32:04;;;;;;;15.23;3.63;;;;;;;19.96;38.68;102533.13;4940460;29;20040;-58
2023/05/26 00:34:30;;;;;;;14.63;2.70;;;;;;;19.95;38.85;102538.72;4934315;29;20036;-59
2023/05/26 00:36:55;;;;;;;13.82;2.60;;;;;;;19.91;38.62;102534.56;4935719;29;20476;-58
2023/05/26 00:39:20;;;;;;;15.40;3.38;;;;;;;19.88;38.73;102534.88;4935478;29;20024;-58
2023/05/26 00:41:46;;;;;;;15.35;2.75;;;;;;;19.83;39.00;102538.03;4936068;29;20392;-58
2023/05/26 00:44:12;;;;;;;7.50;2.53;;;;;;;19.81;38.60;102537.34;4934250;29;20044;-58
2023/05/26 00:46:37;;;;;;;16.02;2.88;;;;;;;19.79;39.09;102541.22;4935660;29;20521;-59
2023/05/26 00:49:03;;;;;;;15.77;3.90;;;;;;;19.76;38.71;102531.47;4935763;29;20042;-58
2023/05/26 00:51:28;;;;;;;22.60;2.78;;;;;;;19.71;38.82;102534.63;4935643;29;20099;-58
2023/05/26 00:53:55;;;;;;;17.15;2.83;;;;;;;19.67;39.23;102533.22;4936069;29;20038;-58
2023/05/26 00:56:20;;;;;;;10.57;2.33;;;;;;;19.57;39.47;102526.91;4933904;29;20466;-58
2023/05/26 00:58:46;;;;;;;16.40;3.55;;;;;;;19.59;38.66;102532.22;4936060;29;20118;-58
2023/05/26 01:01:12;;;;;;;12.95;3.13;;;;;;;19.56;39.29;102535.25;4937468;29;20040;-58
2023/05/26 01:03:38;;;;;;;17.00;4.28;;;;;;;19.37;39.18;102510.78;4937992;29;20042;-59
2023/05/26 01:06:04;;;;;;;10.85;2.75;;;;;;;19.52;39.79;102536.53;4939474;29;20094;-58
2023/05/26 01:08:30;;;;;;;12.00;2.92;;;;;;;19.49;39.22;102532.25;4938567;29;20501;-58
2023/05/26 01:11:00;;;;;;;17.48;3.00;;;;;;;19.46;39.41;102540.69;4938785;29;20492;-59
2023/05/26 01:13:31;;;;;;;11.77;3.22;;;;;;;19.27;39.60;102508.06;4921596;29;20051;-58
2023/05/26 01:16:03;;;;;;;16.52;2.90;;;;;;;19.42;39.52;102528.41;4937447;29;20027;-59
2023/05/26 01:18:36;;;;;;;11.38;2.33;;;;;;;19.39;39.26;102535.97;4938625;28;20395;-58
2023/05/26 01:21:08;;;;;;;11.73;3.10;;;;;;;19.35;39.26;102531.78;4937630;29;20032;-58
2023/05/26 01:24:03;;;;;;;12.82;2.53;;;;;;;19.16;39.37;102503.63;4945096;28;20039;-59
2023/05/26 01:26:51;;;;;;;14.70;2.50;;;;;;;19.15;40.11;102515.50;4938554;28;20044;-59
2023/05/26 01:29:19;;;;;;;11.88;2.60;;;;;;;19.23;39.60;102538.41;4938228;28;20070;-59
2023/05/26 01:31:44;;;;;;;17.05;2.60;;;;;;;19.20;39.22;102544.97;4937199;29;20403;-59
2023/05/26 01:34:09;;;;;;;13.57;2.85;;;;;;;19.18;39.95;102547.81;4938055;29;20032;-59
2023/05/26 01:36:35;;;;;;;10.23;3.45;;;;;;;19.16;40.11;102543.53;4938236;29;20039;-60
2023/05/26 01:39:01;;;;;;;23.98;3.80;;;;;;;19.12;39.50;102540.22;4938737;29;20035;-59
2023/05/26 01:41:48;;;;;;;14.10;3.78;;;;;;;19.11;39.84;102551.25;4936947;29;20039;-59
2023/05/26 01:44:54;;;;;;;12.27;2.60;;;;;;;18.94;39.54;102527.50;4938220;28;20087;-59
2023/05/26 01:47:20;;;;;;;17.13;3.60;;;;;;;18.86;39.77;102530.09;4938128;28;20059;-59
2023/05/26 01:49:46;;;;;;;21.02;4.93;;;;;;;18.95;40.12;102546.41;4936916;29;20040;-59
2023/05/26 01:52:14;;;;;;;7.63;2.50;;;;;;;18.95;39.90;102551.81;4938035;29;20407;-59
2023/05/26 01:54:47;;;;;;;14.90;3.05;;;;;;;18.92;40.12;102546.69;4920956;29;20444;-59
2023/05/26 01:57:13;;;;;;;18.10;2.97;;;;;;;18.87;40.21;102554.38;4936872;29;20079;-58
2023/05/26 01:59:38;;;;;;;16.52;3.08;;;;;;;18.84;40.02;102554.69;4937753;29;20031;-59
2023/05/26 02:02:04;;;;;;;13.05;3.20;;;;;;;18.78;40.12;102554.38;4937904;29;20079;-59
2023/05/26 02:04:29;;;;;;;15.65;2.65;;;;;;;18.71;40.76;102548.63;4938500;29;20028;-59
2023/05/26 02:06:55;;;;;;;17.52;3.10;;;;;;;18.70;39.82;102552.38;4937546;29;20032;-58
2023/05/26 02:09:20;;;;;;;15.80;3.13;;;;;;;18.68;39.56;102548.91;4937648;29;20024;-59
2023/05/26 02:11:47;;;;;;;23.42;2.78;;;;;;;18.65;40.65;102557.31;4937497;29;20103;-59
2023/05/26 02:14:12;;;;;;;16.08;2.53;;;;;;;18.63;40.63;102553.91;4936572;29;20039;-58
2023/05/26 02:16:39;;;;;;;12.38;3.03;;;;;;;18.62;40.67;102559.47;4936468;29;20036;-59
2023/05/26 02:19:07;;;;;;;20.88;3.25;;;;;;;18.39;39.68;102526.25;4937514;29;20519;-59
2023/05/26 02:21:33;;;;;;;17.17;2.83;;;;;;;18.57;40.79;102557.16;4937710;29;20035;-58
2023/05/26 02:23:58;;;;;;;18.38;3.60;;;;;;;18.56;40.27;102560.91;4937979;29;20028;-59
2023/05/26 02:26:23;;;;;;;11.35;3.63;;;;;;;18.53;40.91;102561.16;4937580;29;20035;-59
2023/05/26 02:28:52;;;;;;;14.85;3.17;;;;;;;18.50;40.58;102558.72;4935782;29;20171;-58
2023/05/26 02:31:17;;;;;;;11.88;4.45;;;;;;;18.49;40.93;102565.16;4937305;29;20108;-59
2023/05/26 02:33:43;;;;;;;12.88;2.78;;;;;;;18.47;41.01;102569.81;4937344;29;20444;-59
2023/05/26 02:36:11;;;;;;;14.00;3.10;;;;;;;18.45;40.50;102572.66;4937887;29;20055;-59
2023/05/26 02:38:36;;;;;;;13.50;3.60;;;;;;;18.39;40.47;102564.22;4936875;29;20415;-59
2023/05/26 02:41:01;;;;;;;20.92;3.25;;;;;;;18.35;40.72;102562.78;4936921;29;20039;-59
2023/05/26 02:43:27;;;;;;;14.35;2.90;;;;;;;18.31;41.05;102561.34;4937155;29;20043;-59
2023/05/26 02:45:52;;;;;;;12.45;3.72;;;;;;;18.24;40.18;102554.72;4935790;29;20041;-59
2023/05/26 02:48:17;;;;;;;15.55;2.60;;;;;;;18.21;40.87;102560.44;4936867;28;20508;-59
2023/05/26 02:50:43;;;;;;;15.48;3.05;;;;;;;18.19;41.76;102559.72;4937215;29;20032;-59
2023/05/26 02:53:09;;;;;;;18.67;2.97;;;;;;;18.19;40.52;102562.44;4936831;28;20040;-59
2023/05/26 02:55:34;;;;;;;18.35;2.95;;;;;;;18.17;40.12;102564.44;4936829;28;20040;-59
2023/05/26 02:58:01;;;;;;;9.25;3.58;;;;;;;18.15;41.06;102561.84;4951376;28;20504;-58
2023/05/26 03:00:26;;;;;;;11.48;2.85;;;;;;;18.14;40.65;102561.97;4937054;28;20038;-58
2023/05/26 03:02:51;;;;;;;15.50;2.35;;;;;;;18.12;40.96;102566.69;4937181;29;20028;-58
2023/05/26 03:05:17;;;;;;;14.55;3.17;;;;;;;18.11;41.41;102562.25;4936978;28;20511;-59
2023/05/26 03:07:43;;;;;;;12.70;2.67;;;;;;;18.06;41.18;102559.97;4938025;28;20035;-58
2023/05/26 03:10:08;;;;;;;16.80;2.65;;;;;;;18.04;40.63;102560.06;4951632;28;20038;-59
2023/05/26 03:12:34;;;;;;;17.58;3.13;;;;;;;18.02;41.29;102553.94;4936594;28;20035;-58
2023/05/26 03:14:59;;;;;;;13.52;2.97;;;;;;;17.94;40.58;102545.63;4937087;29;20475;-59
2023/05/26 03:17:25;;;;;;;15.00;2.47;;;;;;;17.92;42.05;102555.72;4937069;28;20042;-59
2023/05/26 03:19:50;;;;;;;21.85;3.03;;;;;;;17.85;41.62;102562.69;4936541;28;20406;-59
2023/05/26 03:22:16;;;;;;;19.08;5.05;;;;;;;17.74;41.04;102543.78;4935821;28;20064;-59
2023/05/26 03:24:41;;;;;;;17.02;3.30;;;;;;;17.80;41.03;102562.25;4936254;28;20038;-59
2023/05/26 03:27:07;;;;;;;15.88;2.78;;;;;;;17.65;41.03;102532.88;4936663;29;20042;-59
2023/05/26 03:29:33;;;;;;;13.50;3.60;;;;;;;17.78;40.98;102572.34;4934934;29;20114;-58
2023/05/26 03:31:59;;;;;;;11.68;2.35;;;;;;;17.77;41.00;102572.47;4935408;29;20055;-59
2023/05/26 03:34:25;;;;;;;16.55;2.42;;;;;;;17.74;41.81;102572.75;4935193;29;20031;-59
2023/05/26 03:36:52;;;;;;;12.70;2.42;;;;;;;17.58;41.90;102550.69;4936816;29;20055;-58
2023/05/26 03:39:18;;;;;;;11.05;2.55;;;;;;;17.54;41.89;102544.66;4936988;29;20440;-59
2023/05/26 03:41:43;;;;;;;15.45;2.30;;;;;;;17.66;41.48;102576.13;4936419;29;20032;-59
2023/05/26 03:44:10;;;;;;;18.15;3.38;;;;;;;17.64;41.52;102580.81;4936199;29;20083;-58
2023/05/26 03:46:36;;;;;;;13.82;2.97;;;;;;;17.63;41.23;102570.97;4936052;29;20051;-59
2023/05/26 03:49:02;;;;;;;16.55;3.55;;;;;;;17.61;41.45;102578.38;4936022;29;20507;-58
2023/05/26 03:51:27;;;;;;;16.02;2.25;;;;;;;17.60;42.43;102582.06;4934700;29;20035;-58
2023/05/26 03:53:52;;;;;;;17.70;4.13;;;;;;;17.58;41.70;102583.19;4936479;29;20027;-59
2023/05/26 03:56:18;;;;;;;17.52;2.42;;;;;;;17.57;41.33;102593.16;4936019;29;20039;-59
2023/05/26 03:58:44;;;;;;;15.30;3.30;;;;;;;17.25;41.73;102541.69;4934505;29;20035;-59
2023/05/26 04:01:09;;;;;;;20.40;3.08;;;;;;;17.53;41.74;102589.00;4934433;29;20110;-58
2023/05/26 04:03:35;;;;;;;18.25;3.53;;;;;;;17.50;41.63;102580.25;4936018;28;20115;-59
2023/05/26 04:06:00;;;;;;;10.88;3.35;;;;;;;17.52;41.96;102589.97;4936308;29;20506;-59
2023/05/26 04:08:26;;;;;;;15.90;2.78;;;;;;;17.50;41.74;102591.97;4934537;29;20487;-59
2023/05/26 04:10:52;;;;;;;16.02;3.80;;;;;;;17.48;42.37;102591.22;4934660;29;20036;-60
2023/05/26 04:13:17;;;;;;;18.70;2.50;;;;;;;17.47;42.27;102601.19;4934698;29;20039;-58
2023/05/26 04:15:43;;;;;;;12.40;3.20;;;;;;;17.48;42.91;102605.63;4936014;28;20036;-58
2023/05/26 04:18:08;;;;;;;20.08;3.95;;;;;;;17.35;42.36;102582.41;4950930;29;20035;-59
2023/05/26 04:20:34;;;;;;;21.25;3.28;;;;;;;17.48;42.72;102596.63;4936713;28;20099;-58
2023/05/26 04:22:59;;;;;;;12.88;2.92;;;;;;;17.51;42.95;102604.50;4934595;29;20074;-58
2023/05/26 04:25:25;;;;;;;13.40;2.72;;;;;;;17.50;41.87;102602.78;4935710;29;20036;-59
2023/05/26 04:27:56;;;;;;;26.33;3.05;;;;;;;17.46;41.90;102595.91;4935784;29;20387;-59
2023/05/26 04:30:22;;;;;;;14.30;3.40;;;;;;;17.57;41.28;102606.72;4934687;29;20031;-58
2023/05/26 04:32:48;;;;;;;18.85;3.58;;;;;;;17.58;42.23;102603.03;4935906;29;20487;-59
2023/05/26 04:35:13;;;;;;;25.35;4.00;;;;;;;17.43;42.10;102585.31;4938886;29;20042;-60
2023/05/26 04:37:40;;;;;;;13.52;2.50;;;;;;;17.60;41.39;102613.72;4938304;29;20111;-59
2023/05/26 04:40:06;;;;;;;17.92;3.10;;;;;;;17.62;42.74;102609.88;4938178;29;20491;-59
2023/05/26 04:42:34;;;;;;;12.35;2.75;;;;;;;17.51;42.67;102584.66;4938635;29;20419;-59
2023/05/26 04:45:00;;;;;;;21.48;3.20;;;;;;;17.57;42.66;102592.31;4939780;28;20103;-59
2023/05/26 04:47:27;;;;;;;21.90;4.20;;;;;;;17.78;41.99;102615.69;4939326;29;20118;-59
2023/05/26 04:49:53;;;;;;;17.92;2.88;;;;;;;17.66;41.77;102592.38;4939025;29;20035;-59
2023/05/26 04:52:18;;;;;;;20.67;2.67;;;;;;;17.83;42.24;102618.91;4938082;29;20048;-59
2023/05/26 04:54:43;;;;;;;22.02;3.47;;;;;;;17.86;41.66;102607.78;4938660;29;20414;-59
2023/05/26 04:57:09;;;;;;;12.15;3.50;;;;;;;17.91;43.03;102608.25;4939841;29;20047;-59
2023/05/26 04:59:38;;;;;;;12.30;2.72;;;;;;;17.99;42.34;102615.72;4937871;29;20410;-60
2023/05/26 05:02:03;;;;;;;13.93;2.70;;;;;;;18.02;42.57;102610.88;4938849;29;20060;-59
2023/05/26 05:04:28;;;;;;;18.80;5.35;;;;;;;17.94;41.87;102590.84;4938756;29;20027;-59
2023/05/26 05:06:54;;;;;;;25.10;4.38;;;;;;;17.97;42.06;102591.47;4938170;29;20036;-58
2023/05/26 05:09:21;;;;;;;17.48;5.25;;;;;;;18.17;41.98;102615.97;4953665;28;20032;-59
2023/05/26 05:11:46;;;;;;;22.75;4.15;;;;;;;18.18;41.28;102613.09;4937868;29;20411;-59
2023/05/26 05:14:12;;;;;;;25.80;4.28;;;;;;;18.23;42.02;102616.25;4944207;28;20069;-59
2023/05/26 05:16:37;;;;;;;22.35;4.38;;;;;;;18.32;41.34;102617.31;4939086;28;20039;-58
2023/05/26 05:19:03;;;;;;;26.88;6.18;;;;;;;18.40;41.66;102621.06;4938936;28;20028;-59
2023/05/26 05:21:28;;;;;;;19.63;4.10;;;;;;;18.47;41.88;102624.97;4938510;28;20473;-59
2023/05/26 05:23:54;;;;;;;24.75;5.53;;;;;;;18.53;41.81;102620.88;4939030;29;20075;-59
2023/05/26 05:26:21;;;;;;;12.20;4.53;;;;;;;18.55;41.84;102613.44;4937383;29;20036;-59
2023/05/26 05:28:46;;;;;;;16.70;4.90;;;;;;;18.58;41.19;102607.75;4938583;29;20514;-59
2023/05/26 05:31:12;;;;;;;27.30;6.70;;;;;;;18.78;41.56;102636.69;4938426;29;20031;-60
2023/05/26 05:33:38;;;;;;;18.23;5.40;;;;;;;18.86;42.21;102636.84;4938818;29;20435;-59
2023/05/26 05:36:04;;;;;;;24.02;6.00;;;;;;;18.99;41.14;102636.59;4937917;29;20040;-59
2023/05/26 05:38:29;;;;;;;20.25;6.63;;;;;;;19.01;41.71;102632.72;4938410;29;20522;-60
2023/05/26 05:40:55;;;;;;;22.00;5.68;;;;;;;19.06;41.32;102645.91;4937273;29;20040;-59
2023/05/26 05:43:20;;;;;;;21.67;6.28;;;;;;;19.19;41.22;102641.06;4938269;29;20465;-59
2023/05/26 05:45:46;;;;;;;18.45;6.32;;;;;;;19.10;41.10;102642.75;4936826;29;20090;-59
2023/05/26 05:48:11;;;;;;;24.60;6.07;;;;;;;18.99;41.96;102651.03;4938585;29;20122;-59
2023/05/26 05:50:37;;;;;;;22.70;6.25;;;;;;;18.97;41.51;102644.88;4937984;29;20119;-59
2023/05/26 05:53:02;;;;;;;28.92;6.25;;;;;;;18.97;41.33;102653.03;4936793;29;20066;-58
2023/05/26 05:55:28;;;;;;;25.38;6.85;;;;;;;18.93;41.90;102656.16;4937899;29;20043;-59
2023/05/26 05:57:54;;;;;;;27.30;7.57;;;;;;;18.75;42.30;102653.25;4937738;29;20035;-58
2023/05/26 06:00:19;;;;;;;30.45;7.63;;;;;;;18.79;41.88;102675.56;4937570;29;20087;-58
2023/05/26 06:02:45;;;;;;;28.80;7.22;;;;;;;18.70;42.44;102669.09;4938346;29;20020;-59
2023/05/26 06:05:10;;;;;;;24.83;6.82;;;;;;;18.67;42.73;102672.09;4937774;28;20044;-60
2023/05/26 06:07:36;;;;;;;32.05;6.88;;;;;;;18.68;42.07;102671.06;4936521;29;20082;-60
2023/05/26 06:10:01;;;;;;;22.92;7.47;;;;;;;18.59;42.08;102661.88;4936331;29;20095;-59
2023/05/26 06:12:26;;;;;;;26.20;7.57;;;;;;;18.52;41.75;102679.72;4937716;29;20027;-59
2023/05/26 06:14:52;;;;;;;24.15;7.93;;;;;;;18.46;42.75;102682.06;4937690;29;20024;-59
2023/05/26 06:17:17;;;;;;;27.58;10.88;;;;;;;18.39;42.63;102689.06;4936000;29;20126;-59
2023/05/26 06:19:43;;;;;;;31.20;9.32;;;;;;;18.31;42.41;102691.59;4936254;29;20544;-59
2023/05/26 06:22:08;;;;;;;33.58;11.98;;;;;;;18.28;42.94;102686.41;4937396;29;20032;-59
2023/05/26 06:24:33;;;;;;;31.25;11.35;;;;;;;18.22;42.46;102687.81;4937573;29;20071;-59
2023/05/26 06:26:59;;;;;;;35.67;11.27;;;;;;;18.06;41.79;102664.88;4937566;29;20036;-59
2023/05/26 06:29:24;;;;;;;27.52;11.35;;;;;;;18.21;42.08;102686.09;4937419;29;20123;-59
2023/05/26 06:31:49;;;;;;;31.50;11.63;;;;;;;18.25;42.66;102692.13;4937316;29;20115;-59
2023/05/26 06:34:15;;;;;;;34.03;12.88;;;;;;;18.29;42.00;102691.69;4937052;29;20396;-59
2023/05/26 06:36:40;;;;;;;33.95;13.13;;;;;;;18.32;42.31;102691.44;4937020;29;20151;-59
2023/05/26 06:39:06;;;;;;;36.40;13.80;;;;;;;18.39;42.26;102689.91;4937760;29;20055;-61
2023/05/26 06:41:31;;;;;;;26.08;13.05;;;;;;;18.48;41.42;102693.72;4936791;29;20035;-59
2023/05/26 06:43:57;;;;;;;42.15;13.88;;;;;;;18.52;41.99;102679.72;4937095;29;20040;-59
2023/05/26 06:46:22;;;;;;;36.90;12.98;;;;;;;18.65;42.18;102689.50;4936880;29;20055;-59
2023/05/26 06:48:48;;;;;;;33.47;14.57;;;;;;;18.71;41.83;102694.38;4932464;29;20047;-59
2023/05/26 06:51:13;;;;;;;37.88;15.10;;;;;;;18.74;42.60;102697.69;4918566;29;20032;-59
2023/05/26 06:53:38;;;;;;;37.60;15.20;;;;;;;18.73;41.34;102701.41;4935540;29;20032;-59
2023/05/26 06:56:05;;;;;;;37.05;15.45;;;;;;;18.70;42.42;102698.97;4936325;29;20035;-59
2023/05/26 06:58:31;;;;;;;35.85;13.68;;;;;;;18.72;41.27;102706.97;4936397;29;20035;-59
2023/05/26 07:00:58;;;;;;;39.40;14.27;;;;;;;18.59;41.80;102685.50;4936557;29;20032;-59
2023/05/26 07:03:23;;;;;;;37.35;13.65;;;;;;;18.75;41.67;102707.56;4936643;29;20039;-59
2023/05/26 07:05:49;;;;;;;45.50;14.02;;;;;;;18.73;42.33;102711.41;4935814;29;20024;-59
2023/05/26 07:08:15;;;;;;;27.80;11.32;;;;;;;18.74;41.62;102711.25;4936443;29;20062;-59
2023/05/26 07:10:40;;;;;;;35.70;13.40;;;;;;;18.76;42.15;102703.81;4936503;29;20042;-60
2023/05/26 07:13:05;;;;;;;32.00;12.00;;;;;;;18.73;42.46;102715.00;4951037;29;20028;-59
2023/05/26 07:15:31;;;;;;;27.00;12.82;;;;;;;18.75;42.01;102722.97;4936654;29;20459;-59
2023/05/26 07:17:57;;;;;;;35.67;13.90;;;;;;;18.78;42.46;102711.84;4935641;29;20031;-59
2023/05/26 07:20:22;;;;;;;27.35;11.68;;;;;;;18.82;42.13;102711.44;4936327;29;20032;-59
2023/05/26 07:22:47;;;;;;;45.22;14.23;;;;;;;18.52;41.91;102668.88;4936067;29;20036;-59
2023/05/26 07:25:13;;;;;;;31.05;12.98;;;;;;;18.74;41.77;102689.53;4932075;29;20075;-59
2023/05/26 07:27:38;;;;;;;32.05;11.63;;;;;;;18.97;41.44;102712.78;4920521;29;20404;-59
2023/05/26 07:30:04;;;;;;;34.17;12.73;;;;;;;19.06;41.58;102719.25;4936639;29;20048;-59
2023/05/26 07:32:30;;;;;;;28.83;12.73;;;;;;;19.11;41.24;102720.56;4934951;29;20175;-59
2023/05/26 07:34:55;;;;;;;25.35;11.63;;;;;;;19.16;41.72;102718.28;4936014;29;20547;-58
2023/05/26 07:37:20;;;;;;;35.75;12.13;;;;;;;19.08;41.70;102690.94;4936017;29;20070;-59
2023/05/26 07:39:46;;;;;;;25.10;10.48;;;;;;;19.35;41.70;102727.47;4934792;29;20032;-59
2023/05/26 07:42:11;;;;;;;30.75;11.88;;;;;;;19.42;41.40;102717.81;4936372;29;20469;-59
2023/05/26 07:44:36;;;;;;;28.17;11.45;;;;;;;19.55;41.13;102718.38;4934524;29;20040;-59
2023/05/26 07:47:02;;;;;;;23.88;11.77;;;;;;;19.68;41.77;102713.56;4935920;29;20457;-59
2023/05/26 07:49:27;;;;;;;29.35;11.38;;;;;;;19.82;41.42;102718.53;4935917;29;20043;-59
2023/05/26 07:51:53;;;;;;;26.98;10.63;;;;;;;20.07;40.65;102709.78;4936022;29;20043;-59
2023/05/26 07:54:18;;;;;;;25.35;10.55;;;;;;;20.08;40.95;102706.06;4934898;29;20027;-60
2023/05/26 07:56:43;;;;;;;24.20;12.20;;;;;;;20.19;40.75;102719.53;4935903;29;20054;-59
2023/05/26 07:59:09;;;;;;;30.13;10.75;;;;;;;20.47;40.70;102708.75;4935604;29;20040;-59
2023/05/26 08:01:34;;;;;;;26.55;11.13;;;;;;;20.94;40.08;102709.59;4950156;29;20514;-59
2023/05/26 08:04:00;;;;;;;34.50;10.52;;;;;;;21.47;40.26;102703.25;4935709;29;20048;-59
2023/05/26 08:06:25;;;;;;;22.67;9.38;;;;;;;21.89;39.13;102699.94;4935588;29;20428;-59
2023/05/26 08:08:50;;;;;;;19.35;9.30;;;;;;;22.19;39.44;102691.34;4935418;29;20024;-59
2023/05/26 08:11:16;;;;;;;19.10;8.98;;;;;;;22.46;39.16;102693.91;4934136;29;20459;-59
2023/05/26 08:13:42;;;;;;;20.52;9.13;;;;;;;22.36;39.31;102695.88;4935437;29;20110;-60
2023/05/26 08:16:08;;;;;;;22.85;9.32;;;;;;;22.56;39.48;102694.63;4935512;29;20447;-59
2023/05/26 08:18:33;;;;;;;24.92;10.07;;;;;;;22.43;38.91;102699.69;4934382;29;20054;-60
2023/05/26 08:20:58;;;;;;;37.15;9.93;;;;;;;22.67;38.71;102695.44;4936100;29;20028;-59
2023/05/26 08:23:24;;;;;;;30.77;9.10;;;;;;;22.81;38.68;102694.81;4935340;29;20043;-59
2023/05/26 08:25:49;;;;;;;27.27;8.95;;;;;;;22.73;38.91;102692.03;4935569;28;20466;-59
2023/05/26 08:28:15;;;;;;;32.88;9.70;;;;;;;22.59;39.54;102688.84;4935700;29;20035;-59
2023/05/26 08:30:41;;;;;;;20.40;8.35;;;;;;;22.24;39.50;102648.03;4934602;29;20431;-59
2023/05/26 08:33:06;;;;;;;23.15;8.02;;;;;;;22.48;39.42;102677.34;4936235;29;20094;-59
2023/05/26 08:35:32;;;;;;;25.35;7.07;;;;;;;22.51;38.88;102685.22;4935646;28;20043;-60
2023/05/26 08:37:57;;;;;;;26.75;7.82;;;;;;;22.89;38.91;102681.19;4935520;28;20040;-59
2023/05/26 08:40:22;;;;;;;23.25;5.40;;;;;;;23.12;38.44;102677.69;4935510;28;20035;-59
2023/05/26 08:42:52;;;;;;;18.05;6.22;;;;;;;23.33;38.00;102690.03;4950106;28;20051;-59
2023/05/26 08:45:17;;;;;;;13.85;6.03;;;;;;;23.64;37.68;102661.06;4935634;28;20063;-60
2023/05/26 08:47:44;;;;;;;21.48;5.22;;;;;;;24.42;36.77;102689.63;4950489;29;20134;-59
2023/05/26 08:50:11;;;;;;;16.88;4.47;;;;;;;24.58;37.14;102689.59;4934091;29;20043;-59
2023/05/26 08:52:38;;;;;;;19.52;5.25;;;;;;;24.70;36.99;102682.72;4934376;29;20048;-59
2023/05/26 08:55:05;;;;;;;18.20;5.13;;;;;;;24.95;36.92;102679.91;4935599;28;20036;-59
2023/05/26 08:57:30;;;;;;;21.85;4.97;;;;;;;25.14;36.06;102652.03;4935127;28;20503;-58
2023/05/26 08:59:56;;;;;;;17.25;5.28;;;;;;;24.80;36.58;102690.75;4950392;29;20043;-58
2023/05/26 09:02:22;;;;;;;16.38;4.65;;;;;;;25.10;36.24;102678.94;4935076;28;20039;-58
2023/05/26 09:04:47;;;;;;;19.15;4.97;;;;;;;25.26;36.45;102678.88;4933933;29;20261;-57
2023/05/26 09:07:13;;;;;;;18.77;4.28;;;;;;;25.14;36.46;102684.94;4935140;29;20407;-57
2023/05/26 09:09:38;;;;;;;18.33;4.60;;;;;;;25.37;36.40;102680.34;4935348;29;20035;-59
2023/05/26 09:12:11;;;;;;;16.35;4.55;;;;;;;25.42;35.84;102677.91;4935372;29;20477;-58
2023/05/26 09:14:37;;;;;;;16.40;3.97;;;;;;;25.30;36.57;102684.84;4934835;29;20063;-57
2023/05/26 09:17:04;;;;;;;18.02;4.03;;;;;;;25.37;35.94;102685.84;4935044;29;20035;-58
2023/05/26 09:19:32;;;;;;;9.20;3.42;;;;;;;25.37;36.35;102689.44;4935483;29;20380;-57
2023/05/26 09:22:07;;;;;;;11.07;3.90;;;;;;;25.18;36.02;102665.19;4937218;29;20032;-58
2023/05/26 09:24:43;;;;;;;15.18;3.58;;;;;;;25.16;35.99;102682.88;4921252;29;20035;-58
2023/05/26 09:27:16;;;;;;;14.40;3.83;;;;;;;25.12;36.23;102682.41;4938936;29;20046;-58
2023/05/26 09:29:52;;;;;;;16.80;3.60;;;;;;;25.19;35.88;102682.50;4937204;29;20126;-57
2023/05/26 09:32:18;;;;;;;22.85;3.97;;;;;;;25.58;35.71;102682.47;4938212;29;20381;-58
2023/05/26 09:34:43;;;;;;;18.85;4.45;;;;;;;25.45;35.49;102683.06;4938354;29;20042;-58
2023/05/26 09:37:10;;;;;;;17.35;4.22;;;;;;;25.58;35.34;102687.97;4937123;29;20499;-57
2023/05/26 09:39:35;;;;;;;13.30;4.03;;;;;;;25.44;35.72;102678.59;4938194;28;20031;-58
2023/05/26 09:42:04;;;;;;;17.67;4.38;;;;;;;25.45;35.71;102672.94;4938548;29;20114;-58
2023/05/26 09:44:31;;;;;;;19.85;4.57;;;;;;;26.11;34.70;102676.00;4938114;28;20070;-58
2023/05/26 09:46:56;;;;;;;15.57;3.83;;;;;;;26.11;34.43;102668.63;4937973;28;20031;-58
2023/05/26 09:49:22;;;;;;;12.88;3.75;;;;;;;25.69;34.93;102671.91;4952677;28;20036;-58
2023/05/26 09:51:50;;;;;;;12.90;3.85;;;;;;;26.01;34.42;102663.41;4938263;28;20031;-58
2023/05/26 09:54:16;;;;;;;12.88;3.72;;;;;;;26.11;34.28;102659.53;4937724;28;20030;-58
2023/05/26 09:56:59;;;;;;;14.63;3.47;;;;;;;26.17;34.44;102669.81;4938029;29;20052;-58
2023/05/26 09:59:37;;;;;;;;;;;;;;;26.12;34.63;102673.09;4953016;28;20044;-58
2023/05/26 10:02:24;;;;;;;18.00;4.75;;;;;;;26.79;33.71;102673.97;4951941;29;19958;-58
2023/05/26 10:04:52;;;;;;;20.23;4.22;;;;;;;27.09;33.77;102667.38;4935403;29;20051;-58
2023/05/26 10:07:21;;;;;;;10.35;3.28;;;;;;;27.40;33.58;102664.34;4937742;28;20105;-58
2023/05/26 10:09:54;;;;;;;22.17;5.00;;;;;;;27.65;33.73;102664.84;4938048;28;20043;-58
2023/05/26 10:12:24;;;;;;;12.38;3.47;;;;;;;27.91;33.25;102665.13;4952283;28;20028;-58
2023/05/26 10:14:52;;;;;;;14.13;4.53;;;;;;;28.25;32.70;102662.44;4938433;29;20063;-59
2023/05/26 10:17:18;;;;;;;18.13;3.83;;;;;;;28.19;32.51;102655.00;4937385;28;20499;-58
2023/05/26 10:19:43;;;;;;;14.65;3.70;;;;;;;27.86;33.42;102645.56;4936402;29;20035;-58
2023/05/26 10:22:13;;;;;;;17.40;3.22;;;;;;;28.12;32.63;102634.78;4936501;29;20068;-58
2023/05/26 10:24:42;;;;;;;22.05;4.45;;;;;;;27.86;32.88;102653.84;4952497;28;20427;-58
2023/05/26 10:27:16;;;;;;;17.70;4.20;;;;;;;28.47;32.18;102654.13;4952695;29;20024;-58
2023/05/26 10:29:54;;;;;;;18.23;4.15;;;;;;;28.50;31.98;102649.06;4952526;29;20043;-58
2023/05/26 10:32:45;;;;;;;17.00;3.83;;;;;;;28.31;31.97;102647.84;4936810;28;20035;-58
2023/05/26 10:35:20;;;;;;;16.15;3.67;;;;;;;28.50;32.05;102648.19;4937256;28;20590;-58
2023/05/26 10:38:11;;;;;;;12.68;4.38;;;;;;;28.63;31.44;102623.47;4951990;28;20044;-58
2023/05/26 10:40:42;;;;;;;13.60;3.95;;;;;;;28.97;32.37;102645.50;4937390;28;20046;-58
2023/05/26 10:43:26;;;;;;;11.98;4.07;;;;;;;29.35;32.17;102641.19;4937089;28;20055;-58
2023/05/26 10:45:55;;;;;;;15.45;4.60;;;;;;;29.56;31.22;102640.16;4937093;28;20039;-59
2023/05/26 10:48:21;;;;;;;19.85;4.00;;;;;;;29.73;30.90;102633.16;4936890;28;20032;-59
2023/05/26 10:50:59;;;;;;;12.85;3.70;;;;;;;30.01;31.20;102633.81;4937317;29;20016;-58
2023/05/26 10:53:26;;;;;;;19.75;4.63;;;;;;;30.18;31.33;102631.47;4936721;28;20036;-58
2023/05/26 10:55:59;;;;;;;14.63;4.35;;;;;;;30.43;30.75;102638.03;4951324;28;20139;-59
2023/05/26 10:58:38;;;;;;;14.93;4.20;;;;;;;30.26;30.64;102625.72;4935418;29;20503;-58
2023/05/26 11:01:04;;;;;;;15.75;3.92;;;;;;;30.56;30.38;102638.03;4936722;28;20044;-58
2023/05/26 11:03:44;;;;;;;16.73;3.75;;;;;;;30.81;29.96;102631.75;4936357;28;20042;-59
2023/05/26 11:06:11;;;;;;;11.07;3.67;;;;;;;30.99;29.84;102635.53;4951506;29;20023;-59
2023/05/26 11:08:44;;;;;;;13.27;3.92;;;;;;;31.03;29.42;102600.81;4951480;28;20087;-59
2023/05/26 11:11:12;;;;;;;21.73;4.90;;;;;;;31.27;29.40;102623.25;4936687;28;20040;-59
2023/05/26 11:13:44;;;;;;;15.18;4.22;;;;;;;31.46;29.33;102627.81;4935567;29;20052;-59
2023/05/26 11:16:23;;;;;;;13.80;4.13;;;;;;;31.53;28.70;102595.38;4936596;28;20044;-59